createdAt,value
2023-03-05T00:01:35.695Z,15.23
2023-03-05T00:04:03.722Z,15.65
2023-03-05T00:06:31.413Z,17.08
2023-03-05T00:08:58.556Z,13.65
2023-03-05T00:11:29.693Z,16.20
2023-03-05T00:13:57.468Z,16.00
2023-03-05T00:16:26.705Z,17.02
2023-03-05T00:18:54.848Z,14.98
2023-03-05T00:21:31.607Z,15.23
2023-03-05T00:24:01.421Z,15.48
2023-03-05T00:26:28.860Z,14.68
2023-03-05T00:28:57.519Z,13.80
2023-03-05T00:31:30.118Z,18.90
2023-03-05T00:33:59.806Z,17.88
2023-03-05T00:36:26.526Z,15.70
2023-03-05T00:38:53.265Z,14.98
2023-03-05T00:41:19.795Z,21.05
2023-03-05T00:43:47.002Z,17.80
2023-03-05T00:46:13.533Z,16.02
2023-03-05T00:48:41.341Z,14.38
2023-03-05T00:51:09.098Z,13.25
2023-03-05T00:53:35.830Z,16.60
2023-03-05T00:56:02.338Z,16.25
2023-03-05T00:58:29.436Z,13.57
2023-03-05T01:01:00.033Z,16.67
2023-03-05T01:03:27.404Z,13.93
2023-03-05T01:05:55.709Z,16.50
2023-03-05T01:08:22.193Z,14.55
2023-03-05T01:10:49.144Z,16.17
2023-03-05T01:13:15.848Z,13.25
2023-03-05T01:15:42.334Z,13.75
2023-03-05T01:18:09.013Z,16.33
2023-03-05T01:20:35.899Z,14.68
2023-03-05T01:23:02.732Z,12.43
2023-03-05T01:25:29.233Z,15.82
2023-03-05T01:27:56.140Z,13.82
2023-03-05T01:30:22.636Z,14.73
2023-03-05T01:32:49.062Z,13.68
2023-03-05T01:35:19.198Z,15.68
2023-03-05T01:37:46.220Z,12.75
2023-03-05T01:40:15.794Z,13.93
2023-03-05T01:42:55.253Z,12.23
2023-03-05T01:45:22.131Z,16.40
2023-03-05T01:47:48.938Z,16.35
2023-03-05T01:50:22.924Z,15.40
2023-03-05T01:52:55.183Z,16.25
2023-03-05T01:55:24.488Z,13.25
2023-03-05T01:57:57.081Z,16.83
2023-03-05T02:00:30.929Z,13.52
2023-03-05T02:03:02.977Z,17.17
2023-03-05T02:05:32.720Z,16.25
2023-03-05T02:08:01.034Z,12.20
2023-03-05T02:10:34.718Z,14.35
2023-03-05T02:13:06.396Z,15.70
2023-03-05T02:15:33.970Z,14.23
2023-03-05T02:18:01.289Z,14.02
2023-03-05T02:20:32.046Z,14.82
2023-03-05T02:22:58.479Z,14.80
2023-03-05T02:25:29.767Z,15.68
2023-03-05T02:28:25.375Z,16.75
2023-03-05T02:30:52.188Z,13.88
2023-03-05T02:33:19.687Z,14.02
2023-03-05T02:35:47.299Z,15.00
2023-03-05T02:38:16.731Z,16.92
2023-03-05T02:40:43.464Z,13.75
2023-03-05T02:43:10.914Z,14.30
2023-03-05T02:45:38.273Z,13.93
2023-03-05T02:48:04.856Z,16.00
2023-03-05T02:50:32.097Z,15.60
2023-03-05T02:52:58.913Z,15.48
2023-03-05T02:55:25.510Z,14.73
2023-03-05T02:57:51.948Z,15.77
2023-03-05T03:00:18.635Z,15.93
2023-03-05T03:02:45.152Z,16.25
2023-03-05T03:05:11.647Z,14.15
2023-03-05T03:07:38.210Z,15.55
2023-03-05T03:10:05.786Z,12.75
2023-03-05T03:12:32.279Z,13.95
2023-03-05T03:15:00.895Z,11.68
2023-03-05T03:17:27.383Z,11.70
2023-03-05T03:19:53.828Z,16.27
2023-03-05T03:22:20.236Z,12.98
2023-03-05T03:24:46.736Z,15.55
2023-03-05T03:27:13.235Z,15.65
2023-03-05T03:29:39.689Z,13.20
2023-03-05T03:32:06.439Z,16.60
2023-03-05T03:34:32.982Z,17.00
2023-03-05T03:36:59.435Z,11.63
2023-03-05T03:39:25.873Z,12.38
2023-03-05T03:41:53.431Z,12.55
2023-03-05T03:44:21.381Z,16.90
2023-03-05T03:46:49.577Z,15.80
2023-03-05T03:49:24.893Z,12.52
2023-03-05T03:51:54.296Z,15.98
2023-03-05T03:54:21.962Z,14.73
2023-03-05T03:56:48.395Z,14.45
2023-03-05T03:59:14.916Z,15.10
2023-03-05T04:01:41.504Z,15.68
2023-03-05T04:04:08.790Z,14.25
2023-03-05T04:06:35.668Z,14.98
2023-03-05T04:09:02.285Z,14.02
2023-03-05T04:11:29.010Z,14.82
2023-03-05T04:13:55.641Z,14.00
2023-03-05T04:16:22.336Z,13.95
2023-03-05T04:18:48.983Z,17.13
2023-03-05T04:21:15.438Z,12.48
2023-03-05T04:23:41.979Z,17.40
2023-03-05T04:26:08.617Z,17.80
2023-03-05T04:28:35.790Z,13.30
2023-03-05T04:31:03.164Z,12.40
2023-03-05T04:33:29.614Z,13.95
2023-03-05T04:35:56.197Z,14.60
2023-03-05T04:38:22.776Z,13.68
2023-03-05T04:40:49.210Z,16.25
2023-03-05T04:43:15.617Z,12.57
2023-03-05T04:45:43.947Z,13.05
2023-03-05T04:48:11.101Z,13.27
2023-03-05T04:50:38.044Z,15.20
2023-03-05T04:53:04.688Z,14.70
2023-03-05T04:55:31.418Z,13.73
2023-03-05T04:57:58.410Z,15.20
2023-03-05T05:00:25.175Z,14.07
2023-03-05T05:02:52.290Z,17.23
2023-03-05T05:05:22.456Z,18.50
2023-03-05T05:07:49.043Z,14.38
2023-03-05T05:10:16.853Z,14.93
2023-03-05T05:12:43.479Z,16.02
2023-03-05T05:15:11.868Z,14.45
2023-03-05T05:17:38.345Z,15.13
2023-03-05T05:20:08.202Z,13.35
2023-03-05T05:22:35.161Z,14.95
2023-03-05T05:25:02.096Z,15.43
2023-03-05T05:27:28.529Z,14.90
2023-03-05T05:29:55.028Z,19.23
2023-03-05T05:32:24.054Z,17.77
2023-03-05T05:34:57.786Z,19.10
2023-03-05T05:37:25.417Z,17.88
2023-03-05T05:39:52.374Z,14.40
2023-03-05T05:42:21.215Z,18.40
2023-03-05T05:44:47.760Z,15.40
2023-03-05T05:47:15.995Z,13.85
2023-03-05T05:49:42.643Z,17.45
2023-03-05T05:52:09.084Z,14.30
2023-03-05T05:54:35.590Z,13.57
2023-03-05T05:57:02.048Z,16.35
2023-03-05T05:59:28.550Z,16.23
2023-03-05T06:01:55.134Z,16.63
2023-03-05T06:04:21.864Z,16.33
2023-03-05T06:06:48.363Z,15.70
2023-03-05T06:09:15.089Z,15.80
2023-03-05T06:11:41.652Z,14.40
2023-03-05T06:14:08.768Z,17.35
2023-03-05T06:16:35.407Z,19.05
2023-03-05T06:19:04.513Z,17.88
2023-03-05T06:21:31.408Z,14.75
2023-03-05T06:23:58.672Z,17.00
2023-03-05T06:26:25.656Z,13.07
2023-03-05T06:28:52.588Z,15.55
2023-03-05T06:31:27.709Z,18.23
2023-03-05T06:33:56.483Z,19.70
2023-03-05T06:36:24.846Z,15.75
2023-03-05T06:38:53.502Z,15.13
2023-03-05T06:41:23.020Z,16.85
2023-03-05T06:43:49.508Z,19.08
2023-03-05T06:46:21.960Z,15.30
2023-03-05T06:48:49.181Z,13.70
2023-03-05T06:51:20.252Z,17.17
2023-03-05T06:53:49.382Z,12.30
2023-03-05T06:56:17.194Z,12.18
2023-03-05T06:58:46.193Z,11.48
2023-03-05T07:01:13.928Z,16.70
2023-03-05T07:03:41.128Z,16.75
2023-03-05T07:06:12.006Z,14.88
2023-03-05T07:08:38.972Z,20.10
2023-03-05T07:11:19.944Z,17.80
2023-03-05T07:13:47.781Z,15.13
2023-03-05T07:16:16.618Z,17.38
2023-03-05T07:18:43.738Z,16.00
2023-03-05T07:21:14.709Z,16.92
2023-03-05T07:23:41.093Z,13.73
2023-03-05T07:26:07.568Z,13.32
2023-03-05T07:28:34.567Z,11.85
2023-03-05T07:31:04.777Z,12.23
2023-03-05T07:33:32.076Z,13.70
2023-03-05T07:35:58.650Z,10.75
2023-03-05T07:38:25.213Z,11.18
2023-03-05T07:40:51.649Z,14.02
2023-03-05T07:43:18.859Z,9.82
2023-03-05T07:45:46.272Z,8.20
2023-03-05T07:48:15.274Z,13.40
2023-03-05T07:50:42.037Z,11.30
2023-03-05T07:53:09.213Z,13.32
2023-03-05T07:55:42.200Z,12.13
2023-03-05T07:58:08.695Z,9.38
2023-03-05T08:00:35.127Z,11.15
2023-03-05T08:03:01.610Z,9.20
2023-03-05T08:05:28.172Z,13.90
2023-03-05T08:07:54.593Z,9.15
2023-03-05T08:10:21.058Z,13.43
2023-03-05T08:12:47.534Z,13.30
2023-03-05T08:15:13.974Z,10.02
2023-03-05T08:17:40.462Z,10.27
2023-03-05T08:20:10.700Z,8.80
2023-03-05T08:22:37.870Z,9.15
2023-03-05T08:25:06.193Z,9.68
2023-03-05T08:27:32.620Z,13.35
2023-03-05T08:30:02.567Z,10.00
2023-03-05T08:32:29.247Z,8.38
2023-03-05T08:34:58.312Z,8.57
2023-03-05T08:37:25.106Z,8.27
2023-03-05T08:39:51.560Z,6.03
2023-03-05T08:42:18.088Z,8.38
2023-03-05T08:44:44.678Z,10.52
2023-03-05T08:47:11.161Z,7.85
2023-03-05T08:49:37.600Z,10.80
2023-03-05T08:52:04.132Z,6.18
2023-03-05T08:54:30.604Z,4.93
2023-03-05T08:56:57.036Z,5.88
2023-03-05T08:59:23.499Z,4.40
2023-03-05T09:01:50.158Z,3.97
2023-03-05T09:04:16.846Z,5.45
2023-03-05T09:06:43.360Z,5.32
2023-03-05T09:09:10.048Z,4.15
2023-03-05T09:11:36.999Z,6.15
2023-03-05T09:14:04.893Z,4.10
2023-03-05T09:16:31.569Z,6.20
2023-03-05T09:18:59.172Z,4.45
2023-03-05T09:21:25.744Z,5.70
2023-03-05T09:23:52.318Z,8.23
2023-03-05T09:26:20.065Z,6.63
2023-03-05T09:28:47.659Z,7.30
2023-03-05T09:31:14.196Z,5.03
2023-03-05T09:33:40.849Z,5.15
2023-03-05T09:36:18.392Z,5.15
2023-03-05T09:38:44.843Z,4.25
2023-03-05T09:41:27.941Z,4.00
2023-03-05T09:44:15.969Z,6.03
2023-03-05T09:46:48.417Z,3.88
2023-03-05T09:49:20.577Z,7.15
2023-03-05T09:51:51.311Z,4.80
2023-03-05T09:54:22.926Z,4.40
2023-03-05T09:56:56.534Z,4.20
2023-03-05T09:59:25.853Z,6.43
2023-03-05T10:01:53.327Z,8.02
2023-03-05T10:04:42.236Z,5.80
2023-03-05T10:07:16.791Z,4.85
2023-03-05T10:09:48.884Z,15.05
2023-03-05T10:12:27.687Z,5.38
2023-03-05T10:14:55.114Z,8.55
2023-03-05T10:17:39.483Z,5.03
2023-03-05T10:25:51.775Z,6.07
2023-03-05T10:28:25.129Z,41.35
2023-03-05T10:31:01.051Z,12.18
2023-03-05T10:33:42.236Z,7.75
2023-03-05T10:36:16.663Z,9.52
2023-03-05T10:39:14.654Z,10.98
2023-03-05T10:42:02.360Z,7.35
2023-03-05T10:44:31.546Z,7.57
2023-03-05T10:47:00.641Z,28.73
2023-03-05T10:49:32.229Z,10.10
2023-03-05T10:52:06.178Z,8.90
2023-03-05T10:54:35.731Z,7.13
2023-03-05T10:57:05.063Z,4.60
2023-03-05T10:59:32.339Z,7.95
2023-03-05T11:02:06.277Z,19.13
2023-03-05T11:04:36.561Z,6.78
2023-03-05T11:07:27.608Z,6.28
2023-03-05T11:10:00.124Z,3.47
2023-03-05T11:12:27.529Z,5.10
2023-03-05T11:15:06.287Z,6.60
2023-03-05T11:17:44.432Z,5.68
2023-03-05T11:20:29.223Z,6.60
2023-03-05T11:23:04.504Z,8.75
2023-03-05T11:25:32.834Z,6.05
2023-03-05T11:28:01.036Z,8.23
2023-03-05T11:30:33.979Z,7.97
2023-03-05T11:33:20.349Z,11.38
2023-03-05T11:35:48.435Z,6.80
2023-03-05T11:38:20.962Z,5.97
2023-03-05T11:40:48.314Z,6.47
2023-03-05T11:43:18.038Z,6.78
2023-03-05T11:45:45.758Z,11.98
2023-03-05T11:48:20.850Z,5.50
2023-03-05T11:50:54.236Z,6.28
2023-03-05T11:53:25.328Z,6.05
2023-03-05T11:56:31.564Z,10.88
2023-03-05T11:59:05.076Z,9.15
2023-03-05T12:01:35.912Z,8.23
2023-03-05T12:04:04.224Z,8.30
2023-03-05T12:06:43.045Z,6.85
2023-03-05T12:09:30.197Z,6.45
2023-03-05T12:12:06.196Z,9.52
2023-03-05T12:15:00.998Z,9.68
2023-03-05T12:18:09.066Z,5.88
2023-03-05T12:20:45.762Z,6.43
2023-03-05T12:23:15.660Z,12.48
2023-03-05T12:25:42.045Z,7.80
2023-03-05T12:28:15.260Z,12.82
2023-03-05T12:30:42.288Z,8.17
2023-03-05T12:33:43.816Z,11.77
2023-03-05T12:36:19.251Z,7.65
2023-03-05T12:38:51.821Z,6.90
2023-03-05T12:41:25.394Z,8.38
2023-03-05T12:44:05.250Z,7.97
2023-03-05T12:46:43.545Z,8.43
2023-03-05T12:49:19.123Z,5.50
2023-03-05T12:51:56.591Z,7.82
2023-03-05T12:54:26.781Z,6.00
2023-03-05T12:56:55.930Z,7.28
2023-03-05T12:59:27.867Z,7.32
2023-03-05T13:02:00.469Z,9.13
2023-03-05T13:04:30.411Z,8.73
2023-03-05T13:07:04.807Z,7.30
2023-03-05T13:09:35.719Z,7.65
2023-03-05T13:12:04.769Z,6.80
2023-03-05T13:14:44.950Z,8.60
2023-03-05T13:17:37.971Z,6.70
2023-03-05T13:20:31.335Z,7.13
2023-03-05T13:23:16.005Z,7.68
2023-03-05T13:25:43.561Z,4.75
2023-03-05T13:28:14.153Z,8.45
2023-03-05T13:30:50.251Z,7.35
2023-03-05T13:33:20.002Z,10.25
2023-03-05T13:35:47.338Z,7.22
2023-03-05T13:38:28.450Z,6.60
2023-03-05T13:41:11.395Z,9.32
2023-03-05T13:43:57.694Z,8.02
2023-03-05T13:46:38.641Z,9.13
2023-03-05T13:49:23.448Z,8.43
2023-03-05T13:51:56.467Z,6.50
2023-03-05T13:54:24.884Z,8.27
2023-03-05T13:57:02.894Z,9.35
2023-03-05T13:59:32.310Z,6.80
2023-03-05T14:02:00.702Z,10.77
2023-03-05T14:04:28.238Z,9.65
2023-03-05T14:06:59.611Z,7.63
2023-03-05T14:09:32.096Z,7.72
2023-03-05T14:12:00.736Z,5.53
2023-03-05T14:14:29.065Z,5.95
2023-03-05T14:16:56.064Z,7.30
2023-03-05T14:19:38.834Z,6.70
2023-03-05T14:22:06.485Z,11.35
2023-03-05T14:24:34.019Z,6.55
2023-03-05T14:27:08.629Z,7.07
2023-03-05T14:29:36.196Z,7.30
2023-03-05T14:32:05.972Z,6.70
2023-03-05T14:34:39.744Z,6.30
2023-03-05T14:37:23.275Z,6.40
2023-03-05T14:39:54.107Z,8.50
2023-03-05T14:42:32.952Z,6.07
2023-03-05T14:45:16.217Z,5.57
2023-03-05T14:47:45.676Z,6.28
2023-03-05T14:50:16.844Z,6.45
2023-03-05T14:52:44.747Z,6.25
2023-03-05T14:55:20.105Z,7.40
2023-03-05T14:57:47.951Z,6.47
2023-03-05T15:00:24.078Z,15.82
2023-03-05T15:02:50.803Z,6.20
2023-03-05T15:05:18.366Z,9.90
2023-03-05T15:07:46.386Z,8.05
2023-03-05T15:10:19.370Z,6.15
2023-03-05T15:12:46.879Z,8.20
2023-03-05T15:15:14.704Z,6.95
2023-03-05T15:17:43.652Z,5.75
2023-03-05T15:20:20.076Z,6.85
2023-03-05T15:22:47.021Z,9.68
2023-03-05T15:25:13.738Z,5.80
2023-03-05T15:27:40.928Z,6.55
2023-03-05T15:30:09.489Z,6.53
2023-03-05T15:32:36.052Z,5.35
2023-03-05T15:35:02.643Z,6.43
2023-03-05T15:37:29.396Z,5.93
2023-03-05T15:39:55.917Z,5.50
2023-03-05T15:42:22.423Z,5.00
2023-03-05T15:44:48.963Z,7.13
2023-03-05T15:47:15.517Z,4.43
2023-03-05T15:49:42.011Z,5.07
2023-03-05T15:52:08.685Z,6.38
2023-03-05T15:54:36.259Z,23.98
2023-03-05T15:57:03.443Z,17.42
2023-03-05T15:59:29.903Z,5.70
2023-03-05T16:01:56.492Z,4.78
2023-03-05T16:04:22.995Z,4.75
2023-03-05T16:06:50.517Z,7.03
2023-03-05T16:09:19.059Z,6.97
2023-03-05T16:11:47.972Z,8.60
2023-03-05T16:14:19.224Z,8.48
2023-03-05T16:16:46.052Z,5.07
2023-03-05T16:19:15.547Z,6.93
2023-03-05T16:21:42.456Z,6.90
2023-03-05T16:24:09.201Z,6.55
2023-03-05T16:26:37.256Z,9.63
2023-03-05T16:29:04.193Z,5.85
2023-03-05T16:31:34.025Z,4.20
2023-03-05T16:34:01.600Z,5.88
2023-03-05T16:36:35.018Z,5.05
2023-03-05T16:39:04.151Z,3.83
2023-03-05T16:41:30.711Z,3.90
2023-03-05T16:43:59.438Z,6.47
2023-03-05T16:46:28.494Z,4.93
2023-03-05T16:48:55.389Z,6.35
2023-03-05T16:51:22.605Z,4.80
2023-03-05T16:53:49.553Z,3.75
2023-03-05T16:56:16.615Z,5.60
2023-03-05T16:58:43.166Z,5.53
2023-03-05T17:01:16.418Z,4.95
2023-03-05T17:03:44.005Z,5.50
2023-03-05T17:06:23.140Z,5.97
2023-03-05T17:08:50.669Z,3.97
2023-03-05T17:11:17.560Z,6.85
2023-03-05T17:13:46.491Z,6.50
2023-03-05T17:16:16.917Z,7.50
2023-03-05T17:18:43.444Z,9.90
2023-03-05T17:21:11.572Z,16.30
2023-03-05T17:23:38.764Z,9.80
2023-03-05T17:26:13.834Z,6.93
2023-03-05T17:28:40.950Z,7.05
2023-03-05T17:31:07.690Z,5.50
2023-03-05T17:33:35.230Z,14.60
2023-03-05T17:36:02.538Z,9.00
2023-03-05T17:38:29.626Z,6.18
2023-03-05T17:40:56.151Z,6.28
2023-03-05T17:43:22.707Z,4.65
2023-03-05T17:45:49.232Z,4.82
2023-03-05T17:48:16.233Z,6.05
2023-03-05T17:50:44.921Z,6.05
2023-03-05T17:53:11.561Z,4.40
2023-03-05T17:55:38.968Z,6.63
2023-03-05T17:58:05.549Z,6.95
2023-03-05T18:00:32.527Z,4.90
2023-03-05T18:02:59.753Z,5.05
2023-03-05T18:05:27.557Z,5.82
2023-03-05T18:07:55.398Z,6.75
2023-03-05T18:10:24.518Z,7.50
2023-03-05T18:12:51.545Z,5.22
2023-03-05T18:15:20.967Z,8.13
2023-03-05T18:17:47.692Z,15.27
2023-03-05T18:20:31.075Z,38.47
2023-03-05T18:22:59.748Z,17.25
2023-03-05T18:25:30.692Z,17.65
2023-03-05T18:27:58.971Z,26.17
2023-03-05T18:30:26.056Z,27.73
2023-03-05T18:32:52.567Z,16.80
2023-03-05T18:35:19.185Z,9.43
2023-03-05T18:37:45.773Z,7.47
2023-03-05T18:40:19.556Z,13.13
2023-03-05T18:42:46.211Z,8.77
2023-03-05T18:45:17.778Z,8.65
2023-03-05T18:47:44.628Z,7.63
2023-03-05T18:50:14.821Z,12.10
2023-03-05T18:52:42.419Z,20.40
2023-03-05T18:55:15.585Z,13.93
2023-03-05T18:57:42.109Z,11.68
2023-03-05T19:00:09.428Z,10.95
2023-03-05T19:02:35.932Z,9.30
2023-03-05T19:05:02.794Z,13.07
2023-03-05T19:07:29.893Z,10.50
2023-03-05T19:09:59.602Z,10.88
2023-03-05T19:12:35.121Z,11.52
2023-03-05T19:15:02.665Z,8.60
2023-03-05T19:17:31.657Z,12.70
2023-03-05T19:20:06.216Z,14.75
2023-03-05T19:22:33.355Z,14.75
2023-03-05T19:25:00.343Z,9.98
2023-03-05T19:27:27.049Z,14.35
2023-03-05T19:29:53.638Z,16.75
2023-03-05T19:32:21.887Z,14.68
2023-03-05T19:34:48.813Z,22.00
2023-03-05T19:37:15.690Z,20.70
2023-03-05T19:39:42.511Z,13.82
2023-03-05T19:42:09.228Z,12.88
2023-03-05T19:44:36.164Z,15.82
2023-03-05T19:47:03.006Z,11.10
2023-03-05T19:49:29.795Z,12.60
2023-03-05T19:51:56.885Z,12.32
2023-03-05T19:54:23.668Z,16.85
2023-03-05T19:56:53.585Z,16.88
2023-03-05T19:59:21.070Z,12.85
2023-03-05T20:01:48.946Z,13.82
2023-03-05T20:04:19.415Z,12.10
2023-03-05T20:06:46.286Z,12.77
2023-03-05T20:09:14.019Z,12.75
2023-03-05T20:11:40.925Z,16.15
2023-03-05T20:14:07.610Z,10.88
2023-03-05T20:16:35.932Z,13.65
2023-03-05T20:19:03.672Z,14.23
2023-03-05T20:21:33.722Z,15.82
2023-03-05T20:24:03.844Z,13.88
2023-03-05T20:26:31.025Z,13.00
2023-03-05T20:28:57.850Z,13.27
2023-03-05T20:31:26.839Z,13.30
2023-03-05T20:33:56.081Z,11.68
2023-03-05T20:36:23.722Z,11.07
2023-03-05T20:38:50.493Z,12.43
2023-03-05T20:41:23.121Z,10.65
2023-03-05T20:43:51.509Z,12.77
2023-03-05T20:46:30.433Z,12.52
2023-03-05T20:49:02.354Z,12.88
2023-03-05T20:51:35.776Z,12.60
2023-03-05T20:54:13.277Z,12.50
2023-03-05T20:56:39.897Z,12.00
2023-03-05T20:59:08.835Z,12.65
2023-03-05T21:01:40.785Z,12.95
2023-03-05T21:04:07.951Z,17.27
2023-03-05T21:06:35.498Z,16.25
2023-03-05T21:09:02.665Z,13.63
2023-03-05T21:11:29.460Z,14.00
2023-03-05T21:13:56.011Z,14.73
2023-03-05T21:16:25.007Z,19.30
2023-03-05T21:18:52.623Z,16.48
2023-03-05T21:21:20.048Z,12.70
2023-03-05T21:23:49.486Z,12.50
2023-03-05T21:26:18.410Z,12.93
2023-03-05T21:28:45.083Z,14.95
2023-03-05T21:31:16.682Z,14.05
2023-03-05T21:33:43.524Z,16.08
2023-03-05T21:36:10.355Z,11.60
2023-03-05T21:38:36.957Z,16.60
2023-03-05T21:41:04.314Z,10.77
2023-03-05T21:43:31.613Z,13.90
2023-03-05T21:46:00.409Z,12.93
2023-03-05T21:48:27.286Z,14.13
2023-03-05T21:50:55.128Z,10.73
2023-03-05T21:53:21.854Z,13.68
2023-03-05T21:56:10.857Z,12.75
2023-03-05T21:58:37.334Z,14.23
2023-03-05T22:01:04.003Z,13.13
2023-03-05T22:03:30.815Z,12.45
2023-03-05T22:05:57.519Z,11.55
2023-03-05T22:08:24.540Z,13.35
2023-03-05T22:10:51.118Z,12.05
2023-03-05T22:13:20.781Z,12.10
2023-03-05T22:15:50.205Z,12.73
2023-03-05T22:18:20.113Z,11.15
2023-03-05T22:20:47.659Z,13.90
2023-03-05T22:23:15.649Z,15.40
2023-03-05T22:25:43.317Z,11.23
2023-03-05T22:28:11.387Z,15.43
2023-03-05T22:30:43.636Z,12.30
2023-03-05T22:33:11.012Z,12.40
2023-03-05T22:35:39.433Z,11.55
2023-03-05T22:38:06.628Z,13.80
2023-03-05T22:40:33.368Z,11.57
2023-03-05T22:43:07.571Z,11.90
2023-03-05T22:48:00.426Z,11.27
2023-03-05T22:50:27.186Z,11.48
2023-03-05T22:52:53.825Z,11.95
2023-03-05T22:55:20.844Z,13.60
2023-03-05T22:57:47.535Z,13.45
2023-03-05T23:00:18.282Z,12.30
2023-03-05T23:02:45.102Z,13.20
2023-03-05T23:05:11.735Z,10.77
2023-03-05T23:07:42.477Z,13.27
2023-03-05T23:10:11.137Z,11.45
2023-03-05T23:12:41.102Z,13.07
2023-03-05T23:15:10.251Z,12.57
2023-03-05T23:17:36.743Z,11.73
2023-03-05T23:20:05.090Z,10.23
2023-03-05T23:22:31.523Z,13.27
2023-03-05T23:24:58.026Z,10.82
2023-03-05T23:27:24.515Z,11.52
2023-03-05T23:30:15.438Z,10.15
2023-03-05T23:32:53.889Z,10.88
2023-03-05T23:35:22.445Z,11.73
2023-03-05T23:37:49.602Z,13.25
2023-03-05T23:40:37.907Z,12.02
2023-03-05T23:43:04.608Z,15.25
2023-03-05T23:45:31.777Z,10.20
2023-03-05T23:47:58.520Z,11.48
2023-03-05T23:50:28.485Z,13.75
2023-03-05T23:52:55.293Z,11.52
2023-03-05T23:55:27.438Z,14.10
2023-03-05T23:57:54.629Z,10.70
